sensor_id;sensor_type;location;lat;lon;timestamp;temperature;humidity
74101;DHT22;62462;52.530;21.682;2022-10-28T08:50:02;13.70;86.20
74101;DHT22;62462;52.530;21.682;2022-10-28T08:55:51;13.70;86.60
74101;DHT22;62462;52.530;21.682;2022-10-28T08:58:32;13.80;86.40
74101;DHT22;62462;52.530;21.682;2022-10-28T09:00:58;13.80;86.60
74101;DHT22;62462;52.530;21.682;2022-10-28T09:03:32;13.80;86.50
74101;DHT22;62462;52.530;21.682;2022-10-28T09:06:03;13.90;86.60
74101;DHT22;62462;52.530;21.682;2022-10-28T09:08:44;14.00;86.50
74101;DHT22;62462;52.530;21.682;2022-10-28T09:11:34;14.00;86.40
74101;DHT22;62462;52.530;21.682;2022-10-28T09:17:17;14.20;86.30
74101;DHT22;62462;52.530;21.682;2022-10-28T09:19:52;14.30;86.90
74101;DHT22;62462;52.530;21.682;2022-10-28T09:30:51;14.50;85.10
74101;DHT22;62462;52.530;21.682;2022-10-28T09:36:14;14.60;84.50
74101;DHT22;62462;52.530;21.682;2022-10-28T09:38:42;14.70;84.60
74101;DHT22;62462;52.530;21.682;2022-10-28T09:41:24;14.70;84.90
74101;DHT22;62462;52.530;21.682;2022-10-28T09:46:37;14.70;85.20
74101;DHT22;62462;52.530;21.682;2022-10-28T09:49:09;14.80;85.00
74101;DHT22;62462;52.530;21.682;2022-10-28T09:54:40;15.00;85.00
74101;DHT22;62462;52.530;21.682;2022-10-28T09:57:07;15.10;85.30
74101;DHT22;62462;52.530;21.682;2022-10-28T09:59:33;15.30;84.80
74101;DHT22;62462;52.530;21.682;2022-10-28T10:01:59;15.40;84.50
74101;DHT22;62462;52.530;21.682;2022-10-28T10:04:27;15.50;84.00
74101;DHT22;62462;52.530;21.682;2022-10-28T10:07:10;15.60;84.30
74101;DHT22;62462;52.530;21.682;2022-10-28T10:09:42;15.80;84.40
74101;DHT22;62462;52.530;21.682;2022-10-28T10:12:10;16.20;83.40
74101;DHT22;62462;52.530;21.682;2022-10-28T10:14:42;16.50;82.50
74101;DHT22;62462;52.530;21.682;2022-10-28T10:17:22;16.80;81.20
74101;DHT22;62462;52.530;21.682;2022-10-28T10:22:30;17.00;79.50
74101;DHT22;62462;52.530;21.682;2022-10-28T10:24:56;17.20;79.00
74101;DHT22;62462;52.530;21.682;2022-10-28T10:27:22;17.40;78.70
74101;DHT22;62462;52.530;21.682;2022-10-28T10:29:50;17.50;78.00
74101;DHT22;62462;52.530;21.682;2022-10-28T10:35:26;17.80;77.00
74101;DHT22;62462;52.530;21.682;2022-10-28T10:37:50;18.00;75.90
74101;DHT22;62462;52.530;21.682;2022-10-28T10:42:43;18.30;75.20
74101;DHT22;62462;52.530;21.682;2022-10-28T10:47:41;18.30;75.00
74101;DHT22;62462;52.530;21.682;2022-10-28T10:50:28;18.40;75.30
74101;DHT22;62462;52.530;21.682;2022-10-28T10:52:57;18.50;74.30
74101;DHT22;62462;52.530;21.682;2022-10-28T10:55:35;18.60;72.60
74101;DHT22;62462;52.530;21.682;2022-10-28T10:58:02;18.60;73.30
74101;DHT22;62462;52.530;21.682;2022-10-28T11:00:35;18.70;73.50
74101;DHT22;62462;52.530;21.682;2022-10-28T11:03:03;18.80;73.30
74101;DHT22;62462;52.530;21.682;2022-10-28T11:05:30;18.90;72.40
74101;DHT22;62462;52.530;21.682;2022-10-28T11:07:57;19.10;72.60
74101;DHT22;62462;52.530;21.682;2022-10-28T11:10:26;19.20;71.60
74101;DHT22;62462;52.530;21.682;2022-10-28T11:12:56;19.20;71.90
74101;DHT22;62462;52.530;21.682;2022-10-28T11:15:25;19.30;71.50
74101;DHT22;62462;52.530;21.682;2022-10-28T11:18:03;19.40;71.00
74101;DHT22;62462;52.530;21.682;2022-10-28T11:25:54;19.70;70.00
74101;DHT22;62462;52.530;21.682;2022-10-28T11:31:18;19.80;68.20
74101;DHT22;62462;52.530;21.682;2022-10-28T11:34:14;19.70;68.30
74101;DHT22;62462;52.530;21.682;2022-10-28T11:37:02;19.70;68.60
74101;DHT22;62462;52.530;21.682;2022-10-28T11:44:54;19.80;68.80
74101;DHT22;62462;52.530;21.682;2022-10-28T11:48:36;20.00;69.70
74101;DHT22;62462;52.530;21.682;2022-10-28T11:50:50;20.10;68.70
74101;DHT22;62462;52.530;21.682;2022-10-28T11:53:35;20.20;68.50
74101;DHT22;62462;52.530;21.682;2022-10-28T12:21:36;20.80;64.00
74101;DHT22;62462;52.530;21.682;2022-10-28T12:24:13;20.90;64.20
74101;DHT22;62462;52.530;21.682;2022-10-28T12:26:53;21.00;62.50
74101;DHT22;62462;52.530;21.682;2022-10-28T12:29:28;21.10;62.70
74101;DHT22;62462;52.530;21.682;2022-10-28T12:32:34;21.20;62.60
74101;DHT22;62462;52.530;21.682;2022-10-28T12:38:25;21.40;61.70
74101;DHT22;62462;52.530;21.682;2022-10-28T12:43:31;21.30;59.70
74101;DHT22;62462;52.530;21.682;2022-10-28T12:45:59;21.20;60.00
74101;DHT22;62462;52.530;21.682;2022-10-28T12:48:43;21.10;60.30
74101;DHT22;62462;52.530;21.682;2022-10-28T12:51:30;21.20;61.10
74101;DHT22;62462;52.530;21.682;2022-10-28T12:56:36;21.50;60.20
74101;DHT22;62462;52.530;21.682;2022-10-28T13:01:47;21.70;59.10
74101;DHT22;62462;52.530;21.682;2022-10-28T13:04:14;21.80;59.30
74101;DHT22;62462;52.530;21.682;2022-10-28T13:27:25;20.90;60.30
74101;DHT22;62462;52.530;21.682;2022-10-28T13:29:54;20.90;61.80
74101;DHT22;62462;52.530;21.682;2022-10-28T13:34:55;20.80;61.40
74101;DHT22;62462;52.530;21.682;2022-10-28T13:37:23;20.60;62.30
74101;DHT22;62462;52.530;21.682;2022-10-28T13:39:50;20.30;63.00
74101;DHT22;62462;52.530;21.682;2022-10-28T13:58:04;19.90;64.90
74101;DHT22;62462;52.530;21.682;2022-10-28T14:03:15;19.50;66.40
74101;DHT22;62462;52.530;21.682;2022-10-28T14:10:59;19.20;67.90
74101;DHT22;62462;52.530;21.682;2022-10-28T14:13:26;19.10;68.60
74101;DHT22;62462;52.530;21.682;2022-10-28T14:18:58;19.00;69.60
74101;DHT22;62462;52.530;21.682;2022-10-28T14:21:37;19.00;69.50
74101;DHT22;62462;52.530;21.682;2022-10-28T14:24:12;19.20;69.20
74101;DHT22;62462;52.530;21.682;2022-10-28T14:40:31;19.00;69.00
74101;DHT22;62462;52.530;21.682;2022-10-28T14:46:17;18.90;69.20
74101;DHT22;62462;52.530;21.682;2022-10-28T14:48:54;18.80;69.50
74101;DHT22;62462;52.530;21.682;2022-10-28T14:51:25;18.70;69.70
74101;DHT22;62462;52.530;21.682;2022-10-28T14:53:55;18.60;69.80
74101;DHT22;62462;52.530;21.682;2022-10-28T14:56:31;18.60;70.00
74101;DHT22;62462;52.530;21.682;2022-10-28T15:04:20;18.30;71.50
74101;DHT22;62462;52.530;21.682;2022-10-28T15:06:50;18.30;71.50
74101;DHT22;62462;52.530;21.682;2022-10-28T15:09:21;18.30;71.60
74101;DHT22;62462;52.530;21.682;2022-10-28T15:11:54;18.30;71.60
74101;DHT22;62462;52.530;21.682;2022-10-28T15:14:35;18.20;71.80
74101;DHT22;62462;52.530;21.682;2022-10-28T15:19:43;18.20;72.60
74101;DHT22;62462;52.530;21.682;2022-10-28T15:24:39;18.00;73.70
74101;DHT22;62462;52.530;21.682;2022-10-28T15:27:05;18.00;73.90
74101;DHT22;62462;52.530;21.682;2022-10-28T15:29:31;18.00;74.40
74101;DHT22;62462;52.530;21.682;2022-10-28T15:34:28;18.00;74.60
74101;DHT22;62462;52.530;21.682;2022-10-28T15:36:55;18.00;75.00
74101;DHT22;62462;52.530;21.682;2022-10-28T15:39:22;18.00;74.80
74101;DHT22;62462;52.530;21.682;2022-10-28T15:41:48;18.00;75.00
74101;DHT22;62462;52.530;21.682;2022-10-28T15:44:33;17.90;75.20
74101;DHT22;62462;52.530;21.682;2022-10-28T15:47:45;17.90;75.20
74101;DHT22;62462;52.530;21.682;2022-10-28T15:50:02;17.90;75.10
74101;DHT22;62462;52.530;21.682;2022-10-28T15:52:37;17.90;75.10
74101;DHT22;62462;52.530;21.682;2022-10-28T15:57:55;17.90;74.90
74101;DHT22;62462;52.530;21.682;2022-10-28T16:00:26;17.90;74.80
74101;DHT22;62462;52.530;21.682;2022-10-28T16:10:34;17.80;75.40
74101;DHT22;62462;52.530;21.682;2022-10-28T16:13:02;17.80;75.40
74101;DHT22;62462;52.530;21.682;2022-10-28T16:15:29;17.80;75.30
74101;DHT22;62462;52.530;21.682;2022-10-28T16:17:55;17.70;75.40
74101;DHT22;62462;52.530;21.682;2022-10-28T16:20:26;17.70;75.50
74101;DHT22;62462;52.530;21.682;2022-10-28T16:22:54;17.70;75.50
74101;DHT22;62462;52.530;21.682;2022-10-28T16:25:21;17.70;75.50
74101;DHT22;62462;52.530;21.682;2022-10-28T16:27:48;17.70;75.60
74101;DHT22;62462;52.530;21.682;2022-10-28T16:30:14;17.70;75.80
74101;DHT22;62462;52.530;21.682;2022-10-28T16:32:47;17.70;76.00
74101;DHT22;62462;52.530;21.682;2022-10-28T16:35:18;17.70;76.00
74101;DHT22;62462;52.530;21.682;2022-10-28T16:37:45;17.70;76.00
74101;DHT22;62462;52.530;21.682;2022-10-28T16:40:12;17.70;76.00
74101;DHT22;62462;52.530;21.682;2022-10-28T16:42:38;17.70;76.20
74101;DHT22;62462;52.530;21.682;2022-10-28T16:45:06;17.60;76.20
74101;DHT22;62462;52.530;21.682;2022-10-28T16:47:32;17.60;76.20
74101;DHT22;62462;52.530;21.682;2022-10-28T16:49:57;17.70;76.10
74101;DHT22;62462;52.530;21.682;2022-10-28T16:52:28;17.70;76.20
74101;DHT22;62462;52.530;21.682;2022-10-28T16:54:55;17.70;76.40
74101;DHT22;62462;52.530;21.682;2022-10-28T16:57:21;17.60;76.50
74101;DHT22;62462;52.530;21.682;2022-10-28T16:59:47;17.60;76.60
74101;DHT22;62462;52.530;21.682;2022-10-28T17:04:51;17.60;76.70
74101;DHT22;62462;52.530;21.682;2022-10-28T17:07:17;17.60;76.60
74101;DHT22;62462;52.530;21.682;2022-10-28T17:09:43;17.60;76.60
74101;DHT22;62462;52.530;21.682;2022-10-28T17:12:14;17.60;76.40
74101;DHT22;62462;52.530;21.682;2022-10-28T17:14:40;17.60;76.70
74101;DHT22;62462;52.530;21.682;2022-10-28T17:17:07;17.60;76.70
74101;DHT22;62462;52.530;21.682;2022-10-28T17:19:32;17.60;76.40
74101;DHT22;62462;52.530;21.682;2022-10-28T17:21:58;17.70;76.50
74101;DHT22;62462;52.530;21.682;2022-10-28T17:24:24;17.70;76.30
74101;DHT22;62462;52.530;21.682;2022-10-28T17:26:50;17.70;76.10
74101;DHT22;62462;52.530;21.682;2022-10-28T17:29:16;17.70;76.00
74101;DHT22;62462;52.530;21.682;2022-10-28T17:31:42;17.70;75.90
74101;DHT22;62462;52.530;21.682;2022-10-28T17:34:09;17.70;75.70
74101;DHT22;62462;52.530;21.682;2022-10-28T17:36:35;17.70;75.50
74101;DHT22;62462;52.530;21.682;2022-10-28T17:39:01;17.70;75.50
74101;DHT22;62462;52.530;21.682;2022-10-28T17:41:27;17.70;75.50
74101;DHT22;62462;52.530;21.682;2022-10-28T17:43:53;17.70;75.50
74101;DHT22;62462;52.530;21.682;2022-10-28T17:46:19;17.70;75.40
74101;DHT22;62462;52.530;21.682;2022-10-28T17:48:45;17.70;75.40
74101;DHT22;62462;52.530;21.682;2022-10-28T17:51:11;17.60;75.30
74101;DHT22;62462;52.530;21.682;2022-10-28T17:53:37;17.60;75.40
74101;DHT22;62462;52.530;21.682;2022-10-28T17:56:04;17.50;75.30
74101;DHT22;62462;52.530;21.682;2022-10-28T17:58:30;17.50;75.40
74101;DHT22;62462;52.530;21.682;2022-10-28T18:01:04;17.40;75.40
74101;DHT22;62462;52.530;21.682;2022-10-28T18:03:30;17.30;75.30
74101;DHT22;62462;52.530;21.682;2022-10-28T18:06:01;17.30;75.30
74101;DHT22;62462;52.530;21.682;2022-10-28T18:08:33;17.30;75.70
74101;DHT22;62462;52.530;21.682;2022-10-28T18:11:02;17.20;76.70
74101;DHT22;62462;52.530;21.682;2022-10-28T18:13:30;17.20;76.30
74101;DHT22;62462;52.530;21.682;2022-10-28T18:16:05;17.10;76.20
74101;DHT22;62462;52.530;21.682;2022-10-28T18:18:31;17.10;77.10
74101;DHT22;62462;52.530;21.682;2022-10-28T18:20:57;17.10;77.00
74101;DHT22;62462;52.530;21.682;2022-10-28T18:23:23;17.00;76.80
74101;DHT22;62462;52.530;21.682;2022-10-28T18:26:13;17.10;76.80
74101;DHT22;62462;52.530;21.682;2022-10-28T18:28:40;17.10;76.60
74101;DHT22;62462;52.530;21.682;2022-10-28T18:31:10;17.10;76.60
74101;DHT22;62462;52.530;21.682;2022-10-28T18:33:37;17.00;76.70
74101;DHT22;62462;52.530;21.682;2022-10-28T18:38:39;17.10;76.90
74101;DHT22;62462;52.530;21.682;2022-10-28T18:41:12;17.00;76.80
74101;DHT22;62462;52.530;21.682;2022-10-28T18:43:38;17.00;77.60
74101;DHT22;62462;52.530;21.682;2022-10-28T18:46:04;17.00;77.50
74101;DHT22;62462;52.530;21.682;2022-10-28T18:48:30;16.90;78.50
74101;DHT22;62462;52.530;21.682;2022-10-28T18:51:01;16.90;77.50
74101;DHT22;62462;52.530;21.682;2022-10-28T18:53:27;16.90;77.60
74101;DHT22;62462;52.530;21.682;2022-10-28T18:55:58;16.90;77.30
74101;DHT22;62462;52.530;21.682;2022-10-28T18:58:27;16.90;77.20
74101;DHT22;62462;52.530;21.682;2022-10-28T19:01:01;16.90;77.00
74101;DHT22;62462;52.530;21.682;2022-10-28T19:03:27;16.90;77.00
74101;DHT22;62462;52.530;21.682;2022-10-28T19:05:53;16.90;76.90
74101;DHT22;62462;52.530;21.682;2022-10-28T19:08:19;16.90;76.90
74101;DHT22;62462;52.530;21.682;2022-10-28T19:10:45;16.90;77.00
74101;DHT22;62462;52.530;21.682;2022-10-28T19:13:10;16.80;77.10
74101;DHT22;62462;52.530;21.682;2022-10-28T19:15:36;16.80;77.30
74101;DHT22;62462;52.530;21.682;2022-10-28T19:18:06;16.70;77.80
74101;DHT22;62462;52.530;21.682;2022-10-28T19:20:32;16.60;78.10
74101;DHT22;62462;52.530;21.682;2022-10-28T19:22:57;16.60;78.60
74101;DHT22;62462;52.530;21.682;2022-10-28T19:25:23;16.60;78.60
74101;DHT22;62462;52.530;21.682;2022-10-28T19:27:49;16.60;78.30
74101;DHT22;62462;52.530;21.682;2022-10-28T19:30:14;16.60;78.20
74101;DHT22;62462;52.530;21.682;2022-10-28T19:32:40;16.60;78.10
74101;DHT22;62462;52.530;21.682;2022-10-28T19:35:06;16.60;79.90
74101;DHT22;62462;52.530;21.682;2022-10-28T19:37:32;16.60;80.20
74101;DHT22;62462;52.530;21.682;2022-10-28T19:39:57;16.60;80.30
74101;DHT22;62462;52.530;21.682;2022-10-28T19:42:23;16.70;80.20
74101;DHT22;62462;52.530;21.682;2022-10-28T19:44:49;16.70;80.50
74101;DHT22;62462;52.530;21.682;2022-10-28T19:47:15;16.70;80.10
74101;DHT22;62462;52.530;21.682;2022-10-28T19:49:40;16.80;80.20
74101;DHT22;62462;52.530;21.682;2022-10-28T19:52:06;16.80;80.00
74101;DHT22;62462;52.530;21.682;2022-10-28T19:54:31;16.80;79.90
74101;DHT22;62462;52.530;21.682;2022-10-28T19:56:57;16.90;80.00
74101;DHT22;62462;52.530;21.682;2022-10-28T19:59:23;16.90;80.10
74101;DHT22;62462;52.530;21.682;2022-10-28T20:01:49;16.90;80.20
74101;DHT22;62462;52.530;21.682;2022-10-28T20:04:14;16.90;80.10
74101;DHT22;62462;52.530;21.682;2022-10-28T20:06:42;16.90;80.50
74101;DHT22;62462;52.530;21.682;2022-10-28T20:09:08;16.90;80.50
74101;DHT22;62462;52.530;21.682;2022-10-28T20:11:36;16.90;80.40
74101;DHT22;62462;52.530;21.682;2022-10-28T20:14:04;16.90;80.10
74101;DHT22;62462;52.530;21.682;2022-10-28T20:16:33;16.90;80.00
74101;DHT22;62462;52.530;21.682;2022-10-28T20:18:59;17.00;80.00
74101;DHT22;62462;52.530;21.682;2022-10-28T20:21:27;17.00;79.80
74101;DHT22;62462;52.530;21.682;2022-10-28T20:23:54;17.00;79.50
74101;DHT22;62462;52.530;21.682;2022-10-28T20:26:29;17.00;79.40
74101;DHT22;62462;52.530;21.682;2022-10-28T20:28:55;17.00;79.40
74101;DHT22;62462;52.530;21.682;2022-10-28T20:31:23;17.10;79.20
74101;DHT22;62462;52.530;21.682;2022-10-28T20:33:54;17.10;79.30
74101;DHT22;62462;52.530;21.682;2022-10-28T20:36:35;17.10;79.50
74101;DHT22;62462;52.530;21.682;2022-10-28T20:39:12;17.00;79.40
74101;DHT22;62462;52.530;21.682;2022-10-28T20:41:39;17.10;79.40
74101;DHT22;62462;52.530;21.682;2022-10-28T20:44:05;17.00;79.20
74101;DHT22;62462;52.530;21.682;2022-10-28T20:46:32;17.10;79.30
74101;DHT22;62462;52.530;21.682;2022-10-28T20:48:58;17.00;79.30
74101;DHT22;62462;52.530;21.682;2022-10-28T20:51:26;17.00;79.10
74101;DHT22;62462;52.530;21.682;2022-10-28T20:53:52;17.00;79.10
74101;DHT22;62462;52.530;21.682;2022-10-28T20:56:20;17.10;79.00
74101;DHT22;62462;52.530;21.682;2022-10-28T20:58:49;17.10;78.80
74101;DHT22;62462;52.530;21.682;2022-10-28T21:01:17;17.10;78.70
74101;DHT22;62462;52.530;21.682;2022-10-28T21:03:43;17.10;78.60
74101;DHT22;62462;52.530;21.682;2022-10-28T21:06:10;17.10;78.80
74101;DHT22;62462;52.530;21.682;2022-10-28T21:08:36;17.10;78.80
74101;DHT22;62462;52.530;21.682;2022-10-28T21:11:03;17.00;78.70
74101;DHT22;62462;52.530;21.682;2022-10-28T21:13:29;17.00;78.80
74101;DHT22;62462;52.530;21.682;2022-10-28T21:15:55;17.00;79.10
74101;DHT22;62462;52.530;21.682;2022-10-28T21:18:21;17.00;79.20
74101;DHT22;62462;52.530;21.682;2022-10-28T21:20:46;17.00;79.40
74101;DHT22;62462;52.530;21.682;2022-10-28T21:23:12;16.90;79.60
74101;DHT22;62462;52.530;21.682;2022-10-28T21:25:38;16.90;79.40
74101;DHT22;62462;52.530;21.682;2022-10-28T21:28:04;17.00;79.50
74101;DHT22;62462;52.530;21.682;2022-10-28T21:30:30;17.00;79.50
74101;DHT22;62462;52.530;21.682;2022-10-28T21:32:56;16.90;79.50
74101;DHT22;62462;52.530;21.682;2022-10-28T21:35:22;16.90;79.50
74101;DHT22;62462;52.530;21.682;2022-10-28T21:37:48;16.80;79.50
74101;DHT22;62462;52.530;21.682;2022-10-28T21:40:14;16.80;79.40
74101;DHT22;62462;52.530;21.682;2022-10-28T21:42:40;16.90;79.40
74101;DHT22;62462;52.530;21.682;2022-10-28T21:45:06;16.90;79.30
74101;DHT22;62462;52.530;21.682;2022-10-28T21:47:32;16.90;79.10
74101;DHT22;62462;52.530;21.682;2022-10-28T21:49:58;16.90;79.10
74101;DHT22;62462;52.530;21.682;2022-10-28T21:52:23;16.90;79.00
74101;DHT22;62462;52.530;21.682;2022-10-28T21:54:49;16.90;78.90
74101;DHT22;62462;52.530;21.682;2022-10-28T21:57:15;16.90;78.80
74101;DHT22;62462;52.530;21.682;2022-10-28T21:59:40;16.80;78.80
74101;DHT22;62462;52.530;21.682;2022-10-28T22:02:06;16.80;78.80
74101;DHT22;62462;52.530;21.682;2022-10-28T22:04:32;16.80;78.90
74101;DHT22;62462;52.530;21.682;2022-10-28T22:06:58;16.80;78.60
74101;DHT22;62462;52.530;21.682;2022-10-28T22:09:24;16.80;78.60
74101;DHT22;62462;52.530;21.682;2022-10-28T22:11:50;16.80;78.60
74101;DHT22;62462;52.530;21.682;2022-10-28T22:14:16;16.80;78.60
74101;DHT22;62462;52.530;21.682;2022-10-28T22:16:42;16.70;78.80
74101;DHT22;62462;52.530;21.682;2022-10-28T22:19:11;16.70;78.70
74101;DHT22;62462;52.530;21.682;2022-10-28T22:21:38;16.70;78.70
74101;DHT22;62462;52.530;21.682;2022-10-28T22:24:05;16.70;78.60
74101;DHT22;62462;52.530;21.682;2022-10-28T22:26:31;16.70;78.70
74101;DHT22;62462;52.530;21.682;2022-10-28T22:28:58;16.60;78.80
74101;DHT22;62462;52.530;21.682;2022-10-28T22:31:27;16.60;79.10
74101;DHT22;62462;52.530;21.682;2022-10-28T22:33:53;16.50;79.40
74101;DHT22;62462;52.530;21.682;2022-10-28T22:36:21;16.50;79.40
74101;DHT22;62462;52.530;21.682;2022-10-28T22:38:47;16.50;80.30
74101;DHT22;62462;52.530;21.682;2022-10-28T22:41:14;16.50;79.20
74101;DHT22;62462;52.530;21.682;2022-10-28T22:43:42;16.50;79.20
74101;DHT22;62462;52.530;21.682;2022-10-28T22:46:09;16.60;79.00
74101;DHT22;62462;52.530;21.682;2022-10-28T22:48:35;16.60;78.80
74101;DHT22;62462;52.530;21.682;2022-10-28T22:51:01;16.60;78.80
74101;DHT22;62462;52.530;21.682;2022-10-28T22:53:27;16.50;78.80
74101;DHT22;62462;52.530;21.682;2022-10-28T22:55:54;16.50;79.00
74101;DHT22;62462;52.530;21.682;2022-10-28T22:58:21;16.50;79.10
74101;DHT22;62462;52.530;21.682;2022-10-28T23:00:47;16.50;78.90
74101;DHT22;62462;52.530;21.682;2022-10-28T23:03:13;16.50;78.90
74101;DHT22;62462;52.530;21.682;2022-10-28T23:05:39;16.50;78.80
74101;DHT22;62462;52.530;21.682;2022-10-28T23:08:05;16.50;78.70
74101;DHT22;62462;52.530;21.682;2022-10-28T23:10:31;16.40;79.00
74101;DHT22;62462;52.530;21.682;2022-10-28T23:13:00;16.40;79.00
74101;DHT22;62462;52.530;21.682;2022-10-28T23:15:26;16.40;78.80
74101;DHT22;62462;52.530;21.682;2022-10-28T23:17:52;16.40;78.90
74101;DHT22;62462;52.530;21.682;2022-10-28T23:20:23;16.40;78.80
74101;DHT22;62462;52.530;21.682;2022-10-28T23:22:49;16.40;79.00
74101;DHT22;62462;52.530;21.682;2022-10-28T23:25:15;16.40;79.00
74101;DHT22;62462;52.530;21.682;2022-10-28T23:27:42;16.40;78.90
74101;DHT22;62462;52.530;21.682;2022-10-28T23:30:10;16.40;78.80
74101;DHT22;62462;52.530;21.682;2022-10-28T23:32:37;16.40;78.80
74101;DHT22;62462;52.530;21.682;2022-10-28T23:35:04;16.40;78.70
74101;DHT22;62462;52.530;21.682;2022-10-28T23:37:30;16.30;78.70
74101;DHT22;62462;52.530;21.682;2022-10-28T23:39:56;16.40;78.60
74101;DHT22;62462;52.530;21.682;2022-10-28T23:42:22;16.30;78.60
74101;DHT22;62462;52.530;21.682;2022-10-28T23:44:47;16.30;78.70
74101;DHT22;62462;52.530;21.682;2022-10-28T23:47:13;16.30;78.50
74101;DHT22;62462;52.530;21.682;2022-10-28T23:49:39;16.30;78.70
74101;DHT22;62462;52.530;21.682;2022-10-28T23:52:04;16.30;78.60
74101;DHT22;62462;52.530;21.682;2022-10-28T23:54:30;16.30;78.50
74101;DHT22;62462;52.530;21.682;2022-10-28T23:56:56;16.30;78.50
74101;DHT22;62462;52.530;21.682;2022-10-28T23:59:22;16.30;78.30
